Aviation Digital Data Service (ADDS)

Output produced by METARs form (1812 UTC 21 September 2019)
found at http://aviationweather.gov/metar/data/
 
KJAN 211754Z 15011G16KT 10SM FEW055 31/16 A3018 RMK AO2 SLP213 T03110161 10317 20178 58016
KJAN 211720Z 2118/2218 15009G18KT P6SM FEW060 
     FM220000 13005KT P6SM FEW060